createdAt,value
2019-03-11T00:00:54.746Z,101402.79
2019-03-11T00:05:56.433Z,101409.55
2019-03-11T00:10:58.102Z,101417.32
2019-03-11T00:15:59.769Z,101399.48
2019-03-11T00:21:01.499Z,101421.12
2019-03-11T00:26:03.172Z,101427.52
2019-03-11T00:31:04.840Z,101427.64
2019-03-11T00:36:06.548Z,101416.61
2019-03-11T00:41:08.233Z,101422.64
2019-03-11T00:46:09.948Z,101416.51
2019-03-11T00:51:11.558Z,101421.02
2019-03-11T00:56:13.156Z,101426.71
2019-03-11T01:01:14.771Z,101428.53
2019-03-11T01:06:16.442Z,101430.34
2019-03-11T01:11:18.150Z,101435.48
2019-03-11T01:16:19.793Z,101433.13
2019-03-11T01:21:21.584Z,101441.56
2019-03-11T01:26:23.197Z,101447.69
2019-03-11T01:31:24.779Z,101442.94
2019-03-11T01:36:26.404Z,101452.50
2019-03-11T01:41:28.151Z,101441.69
2019-03-11T01:46:29.767Z,101440.87
2019-03-11T01:51:31.424Z,101438.88
2019-03-11T01:56:33.096Z,101437.64
2019-03-11T02:01:34.730Z,101433.66
2019-03-11T02:06:36.412Z,101429.05
2019-03-11T02:11:38.012Z,101415.74
2019-03-11T02:16:39.644Z,101404.86
2019-03-11T02:21:41.303Z,101409.45
2019-03-11T02:26:42.986Z,101405.65
2019-03-11T02:31:44.652Z,101408.67
2019-03-11T02:36:46.321Z,101396.75
2019-03-11T02:41:47.978Z,101401.01
2019-03-11T02:46:49.614Z,101392.47
2019-03-11T02:51:51.239Z,101397.70
2019-03-11T02:56:52.876Z,101406.13
2019-03-11T03:01:54.533Z,101395.21
2019-03-11T03:06:56.124Z,101388.83
2019-03-11T03:11:57.708Z,101394.48
2019-03-11T03:16:59.362Z,101390.37
2019-03-11T03:22:00.964Z,101383.24
2019-03-11T03:27:02.694Z,101377.78
2019-03-11T03:32:04.326Z,101365.08
2019-03-11T03:37:05.892Z,101365.08
2019-03-11T03:42:08.171Z,101364.71
2019-03-11T03:47:09.865Z,101389.08
2019-03-11T03:52:11.597Z,101361.48
2019-03-11T03:57:13.203Z,101366.22
2019-03-11T04:02:14.820Z,101363.64
2019-03-11T04:07:16.556Z,101377.86
2019-03-11T04:12:18.233Z,101402.78
2019-03-11T04:17:19.834Z,101400.03
2019-03-11T04:22:21.426Z,101406.37
2019-03-11T04:27:23.054Z,101413.19
2019-03-11T04:32:24.722Z,101427.20
2019-03-11T04:37:26.345Z,101406.54
2019-03-11T04:42:28.095Z,101418.00
2019-03-11T04:47:32.097Z,101423.34
2019-03-11T04:52:33.694Z,101428.48
2019-03-11T04:57:45.924Z,101415.94
2019-03-11T05:02:47.530Z,101423.34
2019-03-11T05:07:49.247Z,101428.77
2019-03-11T05:12:50.854Z,101425.44
2019-03-11T05:17:52.471Z,101426.56
2019-03-11T05:22:55.067Z,101423.27
2019-03-11T05:27:56.856Z,101435.70
2019-03-11T05:32:58.631Z,101479.38
2019-03-11T05:38:00.249Z,101447.70
2019-03-11T05:43:01.998Z,101468.95
2019-03-11T05:48:03.627Z,101471.89
2019-03-11T05:53:05.223Z,101473.22
2019-03-11T05:58:06.818Z,101469.66
2019-03-11T06:03:08.432Z,101468.07
2019-03-11T06:08:19.742Z,101482.73
2019-03-11T06:13:21.468Z,101488.36
2019-03-11T06:18:23.014Z,101494.13
2019-03-11T06:23:24.672Z,101521.70
2019-03-11T06:28:26.291Z,101504.11
2019-03-11T06:33:27.915Z,101511.89
2019-03-11T06:38:29.505Z,101514.02
2019-03-11T06:43:31.190Z,101523.53
2019-03-11T06:48:32.823Z,101506.98
2019-03-11T06:53:34.393Z,101519.38
2019-03-11T06:58:36.002Z,101530.55
2019-03-11T07:03:38.744Z,101524.87
2019-03-11T07:08:40.348Z,101522.66
2019-03-11T07:13:42.059Z,101554.20
2019-03-11T07:18:43.695Z,101549.87
2019-03-11T07:23:45.276Z,101564.42
2019-03-11T07:28:46.908Z,101562.08
2019-03-11T07:33:48.564Z,101574.89
2019-03-11T07:38:50.289Z,101593.56
2019-03-11T07:43:51.991Z,101595.42
2019-03-11T07:48:53.586Z,101615.79
2019-03-11T07:53:55.303Z,101640.80
2019-03-11T07:58:57.160Z,101630.48
2019-03-11T08:04:02.238Z,101627.88
2019-03-11T08:09:05.566Z,101634.69
2019-03-11T08:14:08.930Z,101648.13
2019-03-11T08:19:12.255Z,101660.40
2019-03-11T08:24:16.857Z,101662.44
2019-03-11T08:29:18.820Z,101669.09
2019-03-11T08:34:20.586Z,101667.70
2019-03-11T08:39:22.714Z,101689.55
2019-03-11T08:44:24.417Z,101678.33
2019-03-11T08:49:26.130Z,101686.97
2019-03-11T08:54:27.874Z,101710.59
2019-03-11T08:59:29.767Z,101728.03
2019-03-11T09:04:31.635Z,101727.63
2019-03-11T09:09:33.296Z,101737.12
2019-03-11T09:14:34.945Z,101740.92
2019-03-11T09:19:36.774Z,101750.27
2019-03-11T09:24:38.437Z,101758.06
2019-03-11T09:29:40.108Z,101759.95
2019-03-11T09:34:41.800Z,101767.17
2019-03-11T09:39:43.407Z,101769.32
2019-03-11T09:44:45.020Z,101794.73
2019-03-11T09:49:46.683Z,101792.21
2019-03-11T09:54:48.398Z,101804.50
2019-03-11T09:59:50.009Z,101792.56
2019-03-11T10:04:51.588Z,101815.50
2019-03-11T10:09:53.276Z,101809.97
2019-03-11T10:14:54.993Z,101828.67
2019-03-11T10:19:56.788Z,101826.05
2019-03-11T10:24:58.868Z,101836.41
2019-03-11T10:30:00.445Z,101840.95
2019-03-11T10:35:02.065Z,101900.87
2019-03-11T10:40:04.595Z,101856.13
2019-03-11T10:45:06.448Z,101862.76
2019-03-11T10:50:08.789Z,101874.83
2019-03-11T10:55:11.001Z,101879.75
2019-03-11T11:00:15.252Z,101907.69
2019-03-11T11:05:16.812Z,101907.87
2019-03-11T11:10:18.412Z,101901.66
2019-03-11T11:15:20.400Z,101951.00
2019-03-11T11:20:22.464Z,101963.45
2019-03-11T11:25:24.077Z,101933.07
2019-03-11T11:30:25.636Z,101959.06
2019-03-11T11:35:27.242Z,101992.78
2019-03-11T11:40:28.828Z,101974.88
2019-03-11T11:45:30.468Z,101982.14
2019-03-11T11:50:32.140Z,101995.05
2019-03-11T11:55:33.748Z,101992.37
2019-03-11T12:00:35.646Z,102015.47
2019-03-11T12:05:37.282Z,101993.50
2019-03-11T12:10:38.878Z,102011.84
2019-03-11T12:15:40.528Z,102006.84
2019-03-11T12:20:42.154Z,102017.20
2019-03-11T12:25:43.861Z,102023.13
2019-03-11T12:30:45.421Z,102023.13
2019-03-11T12:35:47.218Z,102045.66
2019-03-11T12:40:48.830Z,102071.56
2019-03-11T12:45:50.480Z,102080.00
2019-03-11T12:50:52.079Z,102079.98
2019-03-11T12:55:53.687Z,102070.36
2019-03-11T13:00:55.364Z,102064.29
2019-03-11T13:05:57.082Z,102103.64
2019-03-11T13:10:58.684Z,102114.84
2019-03-11T13:16:00.332Z,102136.80
2019-03-11T13:21:17.530Z,102130.14
2019-03-11T13:26:19.301Z,102142.34
2019-03-11T13:31:20.872Z,102129.56
2019-03-11T13:36:22.469Z,102198.84
2019-03-11T13:41:24.045Z,102171.20
2019-03-11T13:46:25.647Z,102171.48
2019-03-11T13:51:27.326Z,102163.61
2019-03-11T13:56:29.011Z,102183.25
2019-03-11T14:01:30.619Z,102177.41
2019-03-11T14:06:32.477Z,102199.81
2019-03-11T14:11:34.051Z,102185.52
2019-03-11T14:16:35.675Z,102182.50
2019-03-11T14:21:37.294Z,102198.59
2019-03-11T14:26:38.978Z,102225.30
2019-03-11T14:31:40.560Z,102222.70
2019-03-11T14:36:42.145Z,102236.45
2019-03-11T14:41:43.770Z,102229.81
2019-03-11T14:46:45.459Z,102242.41
2019-03-11T14:51:47.138Z,102248.06
2019-03-11T14:56:48.758Z,102230.29
2019-03-11T15:01:50.378Z,102267.30
2019-03-11T15:06:52.836Z,102257.67
2019-03-11T15:11:54.638Z,102253.53
2019-03-11T15:16:56.253Z,102256.42
2019-03-11T15:21:58.424Z,102273.91
2019-03-11T15:27:00.063Z,102270.33
2019-03-11T15:32:01.665Z,102285.17
2019-03-11T15:37:03.313Z,102289.64
2019-03-11T15:42:06.135Z,102315.47
2019-03-11T15:47:07.666Z,102304.16
2019-03-11T15:52:09.277Z,102298.06
2019-03-11T15:57:10.876Z,102331.53
2019-03-11T16:02:12.717Z,102311.28
2019-03-11T16:07:14.251Z,102332.97
2019-03-11T16:12:15.865Z,102318.73
2019-03-11T16:17:17.435Z,102338.58
2019-03-11T16:22:23.241Z,102347.47
2019-03-11T16:27:22.768Z,102372.92
2019-03-11T16:32:24.318Z,102383.16
2019-03-11T16:37:26.014Z,102368.77
2019-03-11T16:42:27.855Z,102356.11
2019-03-11T16:47:29.561Z,102376.31
2019-03-11T16:52:31.223Z,102403.02
2019-03-11T16:57:35.202Z,102425.66
2019-03-11T17:02:36.951Z,102434.37
2019-03-11T17:07:38.577Z,102441.09
2019-03-11T17:12:40.204Z,102444.55
2019-03-11T17:17:42.329Z,102447.20
2019-03-11T17:22:44.063Z,102451.56
2019-03-11T17:27:45.678Z,102470.39
2019-03-11T17:32:47.327Z,102486.11
2019-03-11T17:37:53.032Z,102489.05
2019-03-11T17:42:57.878Z,102476.25
2019-03-11T17:47:59.537Z,102502.14
2019-03-11T17:53:01.134Z,102503.77
2019-03-11T17:58:02.763Z,102521.16
2019-03-11T18:03:04.370Z,102523.38
2019-03-11T18:08:06.124Z,102522.91
2019-03-11T18:13:07.726Z,102539.91
2019-03-11T18:18:09.382Z,102544.37
2019-03-11T18:23:10.960Z,102544.60
2019-03-11T18:28:12.707Z,102542.40
2019-03-11T18:33:14.324Z,102547.25
2019-03-11T18:38:15.969Z,102540.22
2019-03-11T18:43:20.975Z,102551.86
2019-03-11T18:48:22.158Z,102557.88
2019-03-11T18:53:23.890Z,102551.74
2019-03-11T18:58:25.753Z,102561.01
2019-03-11T19:03:27.554Z,102561.02
2019-03-11T19:08:31.386Z,102567.28
2019-03-11T19:13:33.002Z,102561.39
2019-03-11T19:18:37.488Z,102578.75
2019-03-11T19:23:40.266Z,102576.27
2019-03-11T19:28:41.861Z,102580.15
2019-03-11T19:33:43.824Z,102585.90
2019-03-11T19:38:47.601Z,102581.72
2019-03-11T19:43:51.266Z,102576.89
2019-03-11T19:48:53.310Z,102589.75
2019-03-11T19:53:57.593Z,102587.91
2019-03-11T19:58:59.821Z,102604.72
2019-03-11T20:04:02.740Z,102598.32
2019-03-11T20:09:07.187Z,102600.38
2019-03-11T20:14:09.285Z,102601.67
2019-03-11T20:19:11.092Z,102602.80
2019-03-11T20:24:12.857Z,102598.25
2019-03-11T20:29:23.296Z,102596.02
2019-03-11T20:34:24.405Z,102592.91
2019-03-11T20:39:26.468Z,102593.78
2019-03-11T20:44:28.226Z,102591.83
2019-03-11T20:49:29.935Z,102596.48
2019-03-11T20:54:33.016Z,102594.66
2019-03-11T20:59:35.268Z,102594.73
2019-03-11T21:04:37.420Z,102596.13
2019-03-11T21:09:39.229Z,102594.80
2019-03-11T21:14:40.866Z,102587.07
2019-03-11T21:19:45.067Z,102580.77
2019-03-11T21:24:55.528Z,102574.23
2019-03-11T21:29:51.863Z,102577.95
2019-03-11T21:34:55.816Z,102579.89
2019-03-11T21:39:58.062Z,102580.40
2019-03-11T21:44:59.749Z,102586.99
2019-03-11T21:50:01.531Z,102583.19
2019-03-11T21:55:03.377Z,102583.70
2019-03-11T22:00:05.728Z,102586.80
2019-03-11T22:05:07.441Z,102596.16
2019-03-11T22:10:09.699Z,102604.30
2019-03-11T22:15:11.742Z,102606.99
2019-03-11T22:20:13.596Z,102586.41
2019-03-11T22:25:15.332Z,102585.08
2019-03-11T22:30:17.976Z,102588.69
2019-03-11T22:35:20.107Z,102601.64
2019-03-11T22:40:21.712Z,102586.27
2019-03-11T22:45:23.429Z,102586.84
2019-03-11T22:50:24.995Z,102590.45
2019-03-11T22:55:26.598Z,102591.25
2019-03-11T23:00:34.139Z,102588.06
2019-03-11T23:05:35.829Z,102573.86
2019-03-11T23:10:37.573Z,102562.27
2019-03-11T23:15:39.214Z,102555.09
2019-03-11T23:20:40.856Z,102546.59
2019-03-11T23:25:42.445Z,102547.56
2019-03-11T23:30:44.168Z,102533.48
2019-03-11T23:35:46.097Z,102536.00
2019-03-11T23:40:47.656Z,102533.56
2019-03-11T23:45:49.251Z,102533.98
2019-03-11T23:50:50.825Z,102535.74
2019-03-11T23:55:52.581Z,102534.36
